Time;durP1;ratioP1;P1;durP2;ratioP2;P2;SDS_P1;SDS_P2;PMS_P1;PMS_P2;Temp;Humidity;BMP_temperature;BMP_pressure;BME280_temperature;BME280_humidity;BME280_pressure;Samples;Min_cycle;Max_cycle;Signal;HPM_P1;HPM_P2
2024/04/08 00:01:08;;;;;;;9.23;4.90;;;;;;;8.55;68.40;100137.16;4883812;29;20049;-70
2024/04/08 00:03:34;;;;;;;7.47;4.95;;;;;;;8.22;68.52;100082.50;4882137;29;21098;-69
2024/04/08 00:06:01;;;;;;;10.38;5.47;;;;;;;8.75;68.57;100171.00;4881764;29;20088;-70
2024/04/08 00:08:29;;;;;;;10.38;5.47;;;;;;;8.56;68.49;100144.09;4882000;29;20071;-69
2024/04/08 00:10:54;;;;;;;11.30;5.10;;;;;;;8.48;68.55;100131.09;4882922;29;21115;-70
2024/04/08 00:13:21;;;;;;;8.75;5.00;;;;;;;8.42;68.47;100115.44;4849585;29;20067;-69
2024/04/08 00:15:47;;;;;;;8.77;5.45;;;;;;;8.61;68.49;100155.34;4883300;29;20041;-69
2024/04/08 00:18:13;;;;;;;8.18;5.00;;;;;;;8.65;68.50;100151.03;4865822;29;20131;-69
2024/04/08 00:20:45;;;;;;;8.40;4.50;;;;;;;8.65;68.34;100159.72;4883384;29;20041;-69
2024/04/08 00:23:11;;;;;;;8.73;5.43;;;;;;;8.63;68.65;100164.03;4866207;29;20044;-68
2024/04/08 00:25:37;;;;;;;7.28;5.07;;;;;;;8.38;68.70;100122.34;4868058;29;20052;-69
2024/04/08 00:28:04;;;;;;;9.95;5.60;;;;;;;8.60;68.40;100151.03;4865450;29;20052;-69
2024/04/08 00:30:30;;;;;;;7.55;5.38;;;;;;;8.61;68.58;100152.75;4865614;29;20049;-68
2024/04/08 00:32:56;;;;;;;9.18;5.20;;;;;;;8.68;68.42;100169.22;4866487;29;20045;-70
2024/04/08 00:35:22;;;;;;;10.00;4.93;;;;;;;8.64;68.57;100168.34;4879633;29;20040;-68
2024/04/08 00:37:49;;;;;;;17.52;5.63;;;;;;;8.76;68.46;100188.31;4865232;29;20147;-71
2024/04/08 00:40:15;;;;;;;6.35;4.93;;;;;;;8.80;68.50;100181.38;4864164;29;20163;-69
2024/04/08 00:42:41;;;;;;;8.00;5.10;;;;;;;8.66;68.52;100155.38;4871301;29;20037;-69
2024/04/08 00:45:07;;;;;;;10.57;5.50;;;;;;;8.78;68.53;100180.50;4865783;29;20140;-69
2024/04/08 00:47:33;;;;;;;8.70;5.07;;;;;;;8.56;68.64;100151.88;4896778;29;20040;-70
2024/04/08 00:50:00;;;;;;;6.82;4.72;;;;;;;8.76;68.44;100167.53;4865368;29;20131;-69
2024/04/08 00:52:26;;;;;;;8.68;5.00;;;;;;;8.70;68.47;100155.41;4886279;29;20041;-68
2024/04/08 00:54:52;;;;;;;7.20;4.93;;;;;;;8.72;68.45;100164.03;4884732;29;20051;-69
2024/04/08 00:57:19;;;;;;;8.10;4.75;;;;;;;8.60;68.72;100145.84;4884661;29;20036;-69
2024/04/08 00:59:47;;;;;;;8.57;4.97;;;;;;;8.83;68.47;100176.22;4900853;29;20072;-69
2024/04/08 01:02:13;;;;;;;8.05;4.70;;;;;;;8.65;68.36;100135.47;4899712;29;20123;-70
2024/04/08 01:04:39;;;;;;;9.13;5.20;;;;;;;8.94;68.32;100179.72;4886989;29;20408;-70
2024/04/08 01:07:05;;;;;;;8.07;5.20;;;;;;;8.69;68.44;100134.63;4885768;29;20075;-70
2024/04/08 01:09:32;;;;;;;7.85;5.10;;;;;;;8.93;68.22;100179.72;4885091;29;20499;-70
2024/04/08 01:11:59;;;;;;;9.32;5.38;;;;;;;8.84;68.33;100165.81;4902263;29;20073;-68
2024/04/08 01:14:25;;;;;;;8.68;4.85;;;;;;;8.83;68.18;100158.91;4885711;29;20372;-69
2024/04/08 01:16:51;;;;;;;6.50;4.50;;;;;;;8.83;68.35;100160.66;4884626;29;20471;-71
2024/04/08 01:19:22;;;;;;;8.88;4.90;;;;;;;8.95;68.21;100184.03;4873564;29;20408;-70
2024/04/08 01:21:50;;;;;;;7.00;4.43;;;;;;;8.86;68.32;100181.41;4882185;29;20053;-70
2024/04/08 01:24:16;;;;;;;7.72;5.10;;;;;;;8.79;68.37;100172.75;4885403;29;20044;-70
2024/04/08 01:26:42;;;;;;;7.78;3.83;;;;;;;9.01;68.20;100207.44;4883992;29;20082;-70
2024/04/08 01:29:08;;;;;;;7.70;3.33;;;;;;;8.96;68.26;100182.31;4899453;29;20096;-68
2024/04/08 01:31:34;;;;;;;5.22;3.15;;;;;;;8.98;67.98;100184.06;4869321;29;20052;-69
2024/04/08 01:34:01;;;;;;;7.00;3.30;;;;;;;8.72;68.13;100134.66;4884621;29;20528;-69
2024/04/08 01:36:27;;;;;;;9.63;3.20;;;;;;;8.76;68.05;100141.59;4883166;29;20052;-69
2024/04/08 01:38:53;;;;;;;4.13;3.10;;;;;;;9.21;68.07;100206.63;4869549;29;20052;-71
2024/04/08 01:41:19;;;;;;;7.40;3.50;;;;;;;9.30;68.23;100210.97;4885711;29;20044;-70
2024/04/08 01:43:45;;;;;;;5.50;3.20;;;;;;;9.37;67.94;100211.91;4886135;29;20036;-70
2024/04/08 01:46:12;;;;;;;6.03;3.20;;;;;;;9.14;68.00;100156.41;4867445;29;20083;-69
2024/04/08 01:48:38;;;;;;;5.72;3.28;;;;;;;9.37;68.12;100191.13;4868420;29;20044;-69
2024/04/08 01:51:04;;;;;;;5.97;3.38;;;;;;;9.47;67.98;100195.44;4883908;29;20048;-69
2024/04/08 01:53:30;;;;;;;7.97;3.13;;;;;;;9.49;67.97;100193.72;4884922;29;20041;-69
2024/04/08 01:55:56;;;;;;;4.93;3.15;;;;;;;9.26;67.87;100168.56;4869423;29;20460;-70
2024/04/08 01:58:22;;;;;;;6.75;3.22;;;;;;;9.48;67.41;100192.88;4899017;29;20040;-69
2024/04/08 02:00:48;;;;;;;5.60;3.67;;;;;;;9.47;67.47;100179.88;4884885;29;20088;-70
2024/04/08 02:03:15;;;;;;;5.43;3.42;;;;;;;9.54;67.44;100196.31;4888706;29;20522;-69
2024/04/08 02:05:45;;;;;;;4.90;3.15;;;;;;;9.49;67.32;100181.59;4899930;29;20531;-69
2024/04/08 02:08:11;;;;;;;8.77;3.47;;;;;;;9.46;67.64;100184.22;4852905;29;20045;-68
2024/04/08 02:10:37;;;;;;;6.80;3.67;;;;;;;9.26;67.00;100152.13;4883888;29;20075;-67
2024/04/08 02:13:03;;;;;;;5.07;2.92;;;;;;;9.49;67.43;100199.78;4898686;29;20060;-72
2024/04/08 02:15:29;;;;;;;8.80;3.30;;;;;;;9.49;67.28;100184.19;4874222;29;20087;-71
2024/04/08 02:17:56;;;;;;;8.00;3.50;;;;;;;9.47;67.13;100185.06;4899615;29;20138;-70
2024/04/08 02:20:22;;;;;;;6.78;3.47;;;;;;;9.40;67.39;100172.91;4867922;29;20037;-71
2024/04/08 02:22:49;;;;;;;6.75;3.17;;;;;;;9.34;67.19;100160.78;4868007;29;20048;-71
2024/04/08 02:25:15;;;;;;;6.22;3.35;;;;;;;9.31;67.28;100156.47;4867906;29;20063;-70
2024/04/08 02:27:41;;;;;;;4.68;2.80;;;;;;;9.34;67.17;100166.00;4866921;29;20048;-70
2024/04/08 02:30:08;;;;;;;5.32;3.35;;;;;;;9.32;67.07;100167.72;4883474;29;20055;-70
2024/04/08 02:32:34;;;;;;;5.47;3.40;;;;;;;9.30;66.98;100156.44;4885253;29;20071;-70
2024/04/08 02:35:01;;;;;;;6.15;3.00;;;;;;;9.22;66.93;100151.25;4883558;29;21615;-70
2024/04/08 02:37:27;;;;;;;6.07;3.45;;;;;;;9.23;67.29;100158.16;4883506;29;20045;-71
2024/04/08 02:39:53;;;;;;;5.95;3.28;;;;;;;9.09;67.14;100133.91;4868075;29;20048;-69
2024/04/08 02:42:19;;;;;;;6.85;2.90;;;;;;;9.09;66.80;100137.38;4868590;29;20240;-70
2024/04/08 02:44:45;;;;;;;6.20;3.35;;;;;;;9.14;66.82;100152.97;4885743;29;20037;-70
2024/04/08 02:47:11;;;;;;;7.28;3.70;;;;;;;8.82;67.23;100094.91;4897270;29;20099;-69
2024/04/08 02:49:37;;;;;;;8.43;3.55;;;;;;;9.07;67.16;100131.28;4881832;29;20164;-69
2024/04/08 02:52:03;;;;;;;4.75;3.03;;;;;;;9.01;66.91;100132.16;4883670;29;20045;-69
2024/04/08 02:54:32;;;;;;;5.28;3.38;;;;;;;9.02;67.19;100131.28;4867189;29;20099;-69
2024/04/08 02:56:58;;;;;;;6.47;3.60;;;;;;;9.02;67.23;100136.47;4883052;29;20044;-69
2024/04/08 02:59:25;;;;;;;6.40;3.83;;;;;;;8.86;67.33;100106.16;4884655;29;20043;-68
2024/04/08 03:01:52;;;;;;;6.22;3.88;;;;;;;8.84;67.28;100113.94;4882200;29;20168;-69
2024/04/08 03:04:18;;;;;;;5.38;3.50;;;;;;;8.82;67.52;100105.31;4881975;29;20040;-71
2024/04/08 03:06:44;;;;;;;9.48;4.00;;;;;;;8.76;67.46;100094.88;4867878;29;20041;-71
2024/04/08 03:09:11;;;;;;;5.55;4.03;;;;;;;8.95;67.42;100126.94;4883183;29;20044;-69
2024/04/08 03:11:37;;;;;;;7.50;3.70;;;;;;;8.85;67.41;100094.03;4881917;29;20045;-69
2024/04/08 03:14:04;;;;;;;6.15;3.67;;;;;;;8.85;67.62;100094.03;4882006;29;20064;-70
2024/04/08 03:16:31;;;;;;;7.65;3.78;;;;;;;8.94;67.24;100113.97;4882857;29;20419;-68
2024/04/08 03:18:59;;;;;;;8.95;3.90;;;;;;;8.89;67.31;100106.19;4899047;29;20041;-68
2024/04/08 03:21:25;;;;;;;7.95;4.18;;;;;;;8.91;67.36;100109.66;4884371;29;20588;-69
2024/04/08 03:23:51;;;;;;;10.93;4.07;;;;;;;8.93;67.86;100107.94;4896432;29;20040;-68
2024/04/08 03:26:18;;;;;;;8.57;4.13;;;;;;;9.06;67.77;100118.31;4884323;29;20053;-69
2024/04/08 03:28:44;;;;;;;9.88;4.15;;;;;;;9.10;67.31;100114.88;4895829;29;20453;-68
2024/04/08 03:31:12;;;;;;;13.88;6.13;;;;;;;9.05;67.64;100107.06;4880040;29;20057;-68
2024/04/08 03:33:40;;;;;;;10.55;4.30;;;;;;;9.04;67.66;100106.22;4881411;29;21751;-69
2024/04/08 03:36:11;;;;;;;9.48;4.00;;;;;;;8.99;67.55;100084.56;4883073;29;20049;-70
2024/04/08 03:38:37;;;;;;;7.97;4.22;;;;;;;9.34;67.55;100130.50;4863623;29;20049;-70
2024/04/08 03:41:05;;;;;;;5.38;3.70;;;;;;;9.40;67.95;100134.84;4864049;29;20080;-67
2024/04/08 03:43:32;;;;;;;6.25;4.18;;;;;;;9.34;67.26;100114.03;4847786;29;20136;-69
2024/04/08 03:45:59;;;;;;;6.43;3.85;;;;;;;9.40;67.29;100118.38;4864582;29;20049;-68
2024/04/08 03:48:26;;;;;;;9.13;4.60;;;;;;;9.47;67.54;100114.91;4866585;29;20041;-69
2024/04/08 03:50:52;;;;;;;9.70;4.35;;;;;;;9.64;67.60;100139.16;4847078;29;20085;-67
2024/04/08 03:53:20;;;;;;;5.55;3.75;;;;;;;9.44;67.54;100091.53;4881828;29;20075;-67
2024/04/08 03:55:46;;;;;;;5.80;4.03;;;;;;;9.81;67.25;100143.53;4847938;29;20053;-67
2024/04/08 03:58:12;;;;;;;8.50;4.00;;;;;;;9.84;67.14;100129.66;4864316;29;20049;-69
2024/04/08 04:00:38;;;;;;;5.88;4.03;;;;;;;9.92;66.57;100138.31;4880912;29;20139;-67
2024/04/08 04:03:07;;;;;;;9.02;4.38;;;;;;;9.99;66.58;100139.19;4868450;29;20133;-67
2024/04/08 04:05:33;;;;;;;8.20;4.47;;;;;;;10.07;66.81;100119.22;4865782;29;20052;-67
2024/04/08 04:07:59;;;;;;;10.10;3.80;;;;;;;10.05;66.68;100085.44;4866104;29;20053;-71
2024/04/08 04:10:25;;;;;;;6.65;4.18;;;;;;;10.19;66.06;100097.53;4848322;29;20067;-68
2024/04/08 04:12:51;;;;;;;9.00;4.13;;;;;;;10.18;66.54;100077.59;4863383;29;20512;-67
2024/04/08 04:15:18;;;;;;;13.95;4.50;;;;;;;10.14;66.02;100066.34;4879447;29;20519;-67
2024/04/08 04:17:44;;;;;;;12.05;4.03;;;;;;;10.27;66.28;100079.28;4878178;29;20516;-69
2024/04/08 04:20:12;;;;;;;6.70;3.92;;;;;;;10.47;66.33;100102.69;4862678;29;20501;-67
2024/04/08 04:22:38;;;;;;;6.53;4.15;;;;;;;10.42;66.02;100083.63;4879158;29;20041;-68
2024/04/08 04:25:05;;;;;;;7.03;4.60;;;;;;;10.54;66.10;100102.66;4864345;29;20098;-67
2024/04/08 04:27:31;;;;;;;9.32;3.78;;;;;;;10.59;65.98;100112.19;4880620;29;20049;-69
2024/04/08 04:29:58;;;;;;;8.27;4.28;;;;;;;10.31;65.53;100047.19;4867162;29;20036;-70
2024/04/08 04:32:25;;;;;;;8.95;4.15;;;;;;;10.58;65.75;100077.50;4868722;29;20102;-69
2024/04/08 04:34:52;;;;;;;6.88;4.28;;;;;;;10.62;65.65;100070.53;4881868;29;20097;-72
2024/04/08 04:37:19;;;;;;;6.25;4.30;;;;;;;10.69;65.39;100077.44;4868396;29;20049;-68
2024/04/08 04:39:45;;;;;;;6.22;4.30;;;;;;;10.57;65.38;100054.06;4880748;29;20582;-68
2024/04/08 04:42:11;;;;;;;13.75;4.63;;;;;;;10.83;64.83;100086.03;4881344;29;20054;-67
2024/04/08 04:44:37;;;;;;;8.18;4.70;;;;;;;10.81;65.46;100089.53;4850740;29;20037;-68
2024/04/08 04:47:03;;;;;;;6.07;4.10;;;;;;;10.75;65.20;100072.19;4882807;29;20045;-68
2024/04/08 04:49:30;;;;;;;5.72;4.25;;;;;;;10.93;64.96;100085.97;4866047;29;20049;-67
2024/04/08 04:51:56;;;;;;;7.55;4.45;;;;;;;10.77;64.99;100048.78;4881143;29;20048;-68
2024/04/08 04:54:22;;;;;;;7.72;4.45;;;;;;;10.95;64.64;100066.00;4882539;29;20129;-67
2024/04/08 04:56:49;;;;;;;11.00;4.85;;;;;;;11.00;64.56;100053.81;4869489;29;22164;-69
2024/04/08 04:59:15;;;;;;;9.20;4.82;;;;;;;11.05;64.85;100044.25;4882606;29;20044;-68
2024/04/08 05:01:41;;;;;;;8.95;4.20;;;;;;;11.13;64.40;100039.88;4882241;29;20044;-71
2024/04/08 05:04:07;;;;;;;8.15;3.85;;;;;;;11.32;64.31;100059.69;4851293;29;20132;-69
2024/04/08 05:06:33;;;;;;;8.82;4.40;;;;;;;11.38;64.33;100063.09;4883466;29;20504;-68
2024/04/08 05:09:00;;;;;;;13.15;4.32;;;;;;;11.44;64.03;100064.81;4883233;29;20049;-68
2024/04/08 05:11:26;;;;;;;9.10;3.80;;;;;;;11.52;63.62;100078.63;4851648;29;20052;-69
2024/04/08 05:13:52;;;;;;;7.65;4.35;;;;;;;11.68;63.62;100096.75;4881569;29;20037;-69
2024/04/08 05:16:19;;;;;;;8.55;4.10;;;;;;;11.59;63.58;100084.63;4881821;29;20056;-68
2024/04/08 05:18:45;;;;;;;7.40;4.15;;;;;;;11.53;63.29;100085.56;4866867;29;20098;-69
2024/04/08 05:21:12;;;;;;;7.63;3.90;;;;;;;11.42;63.04;100072.63;4850497;29;20088;-69
2024/04/08 05:23:44;;;;;;;10.65;3.85;;;;;;;11.52;63.03;100083.81;4850668;29;20438;-68
2024/04/08 05:26:12;;;;;;;7.35;3.92;;;;;;;11.22;63.49;100040.66;4866852;29;20050;-68
2024/04/08 05:28:39;;;;;;;9.45;3.65;;;;;;;11.39;62.83;100084.81;4881098;29;20051;-69
2024/04/08 05:31:05;;;;;;;8.27;3.90;;;;;;;11.44;63.13;100081.28;4880219;29;20094;-68
2024/04/08 05:33:31;;;;;;;7.25;3.72;;;;;;;11.40;63.34;100063.94;4866576;29;20186;-68
2024/04/08 05:35:57;;;;;;;6.25;3.75;;;;;;;11.45;63.29;100054.34;4880654;29;20068;-69
2024/04/08 05:38:24;;;;;;;6.28;3.45;;;;;;;11.54;63.30;100048.19;4865213;29;20057;-70
2024/04/08 05:40:50;;;;;;;5.47;3.78;;;;;;;11.72;62.85;100060.22;4854447;29;20136;-68
2024/04/08 05:43:16;;;;;;;6.05;3.78;;;;;;;11.73;63.13;100038.47;4881729;29;20033;-67
2024/04/08 05:45:43;;;;;;;6.90;3.55;;;;;;;11.97;62.74;100046.03;4850669;29;20105;-67
2024/04/08 05:48:09;;;;;;;6.05;3.60;;;;;;;11.99;62.69;100032.16;4882106;29;20053;-70
2024/04/08 05:50:35;;;;;;;7.93;3.70;;;;;;;12.19;62.44;100038.88;4882767;29;20048;-68
2024/04/08 05:53:01;;;;;;;4.93;3.30;;;;;;;12.55;62.44;100051.50;4865685;29;20120;-68
2024/04/08 05:55:31;;;;;;;6.72;3.70;;;;;;;13.07;61.94;100042.91;4880918;29;20515;-69
2024/04/08 05:57:58;;;;;;;9.00;3.35;;;;;;;13.29;61.34;100045.19;4866108;29;20063;-68
2024/04/08 06:00:24;;;;;;;6.90;3.50;;;;;;;13.16;60.19;100010.56;4881194;29;20050;-71
2024/04/08 06:02:54;;;;;;;9.38;3.70;;;;;;;13.06;60.27;100016.84;4880455;29;20219;-69
2024/04/08 06:05:23;;;;;;;8.20;4.50;;;;;;;13.32;60.11;100039.06;4882201;29;20044;-69
2024/04/08 06:07:49;;;;;;;7.13;4.00;;;;;;;13.55;59.43;100029.13;4880904;29;20053;-68
2024/04/08 06:10:20;;;;;;;6.60;3.42;;;;;;;14.44;59.20;100012.59;4885724;29;20132;-68
2024/04/08 06:12:47;;;;;;;4.78;3.65;;;;;;;15.52;58.69;99993.44;4881196;29;20048;-69
2024/04/08 06:15:14;;;;;;;4.82;3.15;;;;;;;17.30;57.66;100025.97;4867461;29;20052;-69
2024/04/08 06:17:41;;;;;;;6.57;3.88;;;;;;;18.65;54.88;100014.09;4878989;29;21905;-67
2024/04/08 06:20:08;;;;;;;6.60;3.50;;;;;;;19.89;51.58;100012.63;4880201;29;20501;-68
2024/04/08 06:22:37;;;;;;;11.57;3.60;;;;;;;20.79;49.11;100019.13;4864950;29;20120;-67
2024/04/08 06:25:06;;;;;;;7.82;3.85;;;;;;;21.57;46.70;99989.72;4880751;29;20139;-69
2024/04/08 06:27:32;;;;;;;8.43;3.42;;;;;;;22.70;45.57;99958.03;4883453;29;20052;-69
2024/04/08 06:29:58;;;;;;;7.22;3.63;;;;;;;23.80;42.60;99973.78;4865304;29;20048;-70
2024/04/08 06:32:24;;;;;;;7.68;3.20;;;;;;;24.60;40.52;99959.94;4848565;29;20092;-70
2024/04/08 06:34:51;;;;;;;8.43;3.65;;;;;;;25.49;38.58;99989.59;4848474;29;20048;-68
2024/04/08 06:37:17;;;;;;;9.65;3.88;;;;;;;25.18;36.62;99962.34;4865230;29;20041;-67
2024/04/08 06:39:43;;;;;;;7.38;3.60;;;;;;;24.70;36.18;99984.13;4895610;29;20508;-68
2024/04/08 06:42:16;;;;;;;7.63;3.67;;;;;;;25.11;34.29;99977.91;4866202;29;20074;-69
2024/04/08 06:44:47;;;;;;;7.97;3.47;;;;;;;25.05;35.10;99957.88;4885292;29;20055;-67
2024/04/08 06:47:13;;;;;;;4.35;3.45;;;;;;;25.97;34.85;99956.97;4867431;29;20100;-68
2024/04/08 06:49:40;;;;;;;9.20;3.75;;;;;;;26.61;33.35;99940.81;4882830;29;20140;-68
2024/04/08 06:52:06;;;;;;;10.77;3.20;;;;;;;27.42;32.63;99945.47;4883110;29;20134;-68
2024/04/08 06:54:32;;;;;;;7.97;3.25;;;;;;;28.30;31.39;99940.41;4882688;29;20833;-69
2024/04/08 06:56:58;;;;;;;8.88;3.03;;;;;;;29.23;30.23;99959.53;4882098;29;20092;-68
2024/04/08 06:59:27;;;;;;;9.40;3.50;;;;;;;29.80;29.36;99936.88;4882118;29;20052;-70
2024/04/08 07:01:54;;;;;;;7.50;3.05;;;;;;;30.53;28.13;99947.41;4881675;29;20132;-68
2024/04/08 07:04:21;;;;;;;9.65;3.05;;;;;;;31.06;27.60;99956.91;4873548;29;20432;-68
2024/04/08 07:06:47;;;;;;;9.50;3.38;;;;;;;31.21;26.73;99957.34;4869721;29;20048;-70
2024/04/08 07:09:13;;;;;;;9.77;3.45;;;;;;;30.73;26.63;99950.97;4882607;29;20160;-69
2024/04/08 07:11:39;;;;;;;6.75;3.10;;;;;;;29.96;26.50;99960.53;4866861;29;20036;-68
2024/04/08 07:14:08;;;;;;;9.00;3.30;;;;;;;30.51;26.45;99941.34;4851884;29;20052;-67
2024/04/08 07:16:35;;;;;;;9.23;3.50;;;;;;;31.83;25.92;99940.78;4868875;29;20044;-67
2024/04/08 07:19:01;;;;;;;7.13;3.08;;;;;;;32.44;23.84;99924.19;4882222;29;20195;-67
2024/04/08 07:21:27;;;;;;;7.40;3.00;;;;;;;32.65;24.14;99918.47;4851910;29;20242;-71
2024/04/08 07:23:53;;;;;;;8.32;3.22;;;;;;;33.13;23.99;99935.19;4884084;29;20090;-67
2024/04/08 07:26:19;;;;;;;3.63;2.75;;;;;;;33.94;22.66;99930.50;4882758;29;20043;-69
2024/04/08 07:28:46;;;;;;;19.67;9.40;;;;;;;34.11;22.55;99935.94;4881960;29;20058;-69
2024/04/08 07:31:12;;;;;;;16.50;11.63;;;;;;;33.51;22.57;99912.56;4881509;29;20546;-69
2024/04/08 07:33:38;;;;;;;18.60;11.23;;;;;;;33.90;22.60;99904.84;4868065;29;20040;-69
2024/04/08 07:36:05;;;;;;;17.23;7.40;;;;;;;34.16;22.02;99912.00;4898438;29;20043;-68
2024/04/08 07:38:31;;;;;;;25.33;19.20;;;;;;;34.00;21.99;99891.19;4897618;29;20052;-68
2024/04/08 07:41:03;;;;;;;6.40;2.63;;;;;;;33.46;21.03;99891.47;4851828;29;20140;-67
2024/04/08 07:43:30;;;;;;;8.07;3.30;;;;;;;32.19;22.57;99899.66;4872406;29;21881;-67
2024/04/08 07:45:56;;;;;;;6.60;3.10;;;;;;;31.77;23.17;99871.44;4899741;29;20559;-71
2024/04/08 07:48:22;;;;;;;8.52;3.25;;;;;;;31.52;22.88;99897.97;4883002;29;20048;-68
2024/04/08 07:50:50;;;;;;;10.20;3.63;;;;;;;30.24;22.69;99902.59;4883496;29;20059;-68
2024/04/08 07:53:16;;;;;;;11.15;3.55;;;;;;;29.82;24.48;99918.84;4881506;29;20044;-69
2024/04/08 07:55:44;;;;;;;9.10;3.03;;;;;;;29.88;24.66;99916.44;4882613;29;20041;-67
2024/04/08 07:58:10;;;;;;;8.65;3.13;;;;;;;30.04;24.92;99947.28;4898685;29;20045;-69
2024/04/08 08:00:35;;;;;;;13.82;2.90;;;;;;;29.76;24.56;99944.34;4858051;29;20108;-68
2024/04/08 08:03:02;;;;;;;11.05;3.13;;;;;;;28.91;25.42;99975.66;4903984;29;21628;-68
2024/04/08 08:05:28;;;;;;;9.40;4.15;;;;;;;28.56;25.79;99970.41;4887061;29;20051;-67
2024/04/08 08:07:54;;;;;;;13.88;4.22;;;;;;;28.99;26.03;99967.84;4887978;29;20037;-68
2024/04/08 08:10:20;;;;;;;8.80;6.13;;;;;;;29.04;25.64;99979.00;4869205;29;20049;-68
2024/04/08 08:12:46;;;;;;;12.75;5.35;;;;;;;28.56;25.95;99962.38;4887347;29;20043;-68
2024/04/08 08:15:14;;;;;;;10.93;6.00;;;;;;;27.98;26.51;99977.72;4871462;29;20045;-69
2024/04/08 08:17:40;;;;;;;7.45;4.32;;;;;;;27.41;27.25;99964.31;4886973;29;20481;-68
2024/04/08 08:20:07;;;;;;;10.05;4.80;;;;;;;26.73;27.74;99932.84;4854239;29;20060;-69
2024/04/08 08:22:33;;;;;;;11.65;4.80;;;;;;;26.32;27.87;99964.31;4890172;29;20032;-68
2024/04/08 08:24:59;;;;;;;9.02;4.03;;;;;;;25.93;28.52;99950.19;4903042;29;20602;-69
2024/04/08 08:27:25;;;;;;;6.85;3.97;;;;;;;26.30;29.27;99911.06;4885763;29;20566;-69
2024/04/08 08:29:52;;;;;;;11.63;4.20;;;;;;;27.77;28.08;99896.47;4902294;29;20064;-69
2024/04/08 08:32:18;;;;;;;9.95;3.08;;;;;;;29.25;26.52;99914.72;4865491;29;20040;-69
2024/04/08 08:34:44;;;;;;;4.70;3.55;;;;;;;29.63;26.19;99920.47;4888380;29;20049;-68
2024/04/08 08:37:10;;;;;;;7.22;3.88;;;;;;;29.35;26.45;99924.66;4886275;29;20040;-69
2024/04/08 08:39:39;;;;;;;7.80;3.63;;;;;;;29.26;26.03;99932.50;4854710;29;20152;-69
2024/04/08 08:42:07;;;;;;;4.97;2.67;;;;;;;28.51;26.28;99931.59;4866342;29;20041;-68
2024/04/08 08:44:34;;;;;;;6.28;2.70;;;;;;;28.19;26.65;99938.59;4866664;29;20698;-69
2024/04/08 08:47:02;;;;;;;12.27;3.60;;;;;;;27.71;27.13;99917.47;4852560;29;20083;-67
2024/04/08 08:49:29;;;;;;;6.65;2.80;;;;;;;27.25;27.95;99927.22;4864680;29;20042;-72
2024/04/08 08:51:56;;;;;;;7.38;3.22;;;;;;;26.19;28.75;99899.47;4880766;29;20132;-67
2024/04/08 08:54:22;;;;;;;6.72;3.30;;;;;;;25.76;29.14;99916.72;4852058;29;20077;-67
2024/04/08 08:56:48;;;;;;;9.40;2.92;;;;;;;25.99;29.58;99905.28;4867136;29;20052;-71
2024/04/08 08:59:15;;;;;;;4.53;2.75;;;;;;;26.20;29.06;99915.38;4856465;29;20072;-68
2024/04/08 09:01:42;;;;;;;4.55;2.50;;;;;;;25.92;29.70;99880.00;4851461;29;20041;-68
2024/04/08 09:04:12;;;;;;;10.45;3.03;;;;;;;25.29;29.98;99845.34;4867913;29;20049;-70
2024/04/08 09:07:02;;;;;;;8.23;2.70;;;;;;;25.17;30.38;99881.66;4851144;29;20038;-67
2024/04/08 09:09:28;;;;;;;16.80;3.40;;;;;;;24.73;31.49;99853.59;4840105;29;20560;-69
2024/04/08 09:11:55;;;;;;;20.27;3.28;;;;;;;25.10;31.36;99889.22;4865042;29;20049;-68
2024/04/08 09:14:22;;;;;;;9.40;2.83;;;;;;;24.87;31.14;99895.25;4867773;29;20167;-68
2024/04/08 09:16:51;;;;;;;11.80;2.67;;;;;;;24.39;31.46;99898.34;4867508;29;20042;-68
2024/04/08 09:19:17;;;;;;;6.95;2.92;;;;;;;23.87;32.14;99861.72;4866311;29;20049;-68
2024/04/08 09:21:43;;;;;;;9.00;2.92;;;;;;;24.26;32.68;99914.28;4881725;29;20519;-68
2024/04/08 09:24:09;;;;;;;14.52;3.25;;;;;;;24.38;32.08;99907.31;4869023;29;20049;-67
2024/04/08 09:26:36;;;;;;;10.73;3.20;;;;;;;24.08;32.14;99910.97;4826220;29;20535;-68
2024/04/08 09:29:02;;;;;;;5.55;2.80;;;;;;;24.19;32.51;99914.66;4866097;29;20088;-68
2024/04/08 09:31:28;;;;;;;4.18;2.45;;;;;;;23.74;32.57;99869.59;4866218;29;20152;-68
2024/04/08 09:33:54;;;;;;;5.25;2.97;;;;;;;23.66;32.91;99895.81;4866592;29;20100;-68
2024/04/08 09:36:20;;;;;;;8.32;3.10;;;;;;;23.67;33.60;99901.97;4867982;29;20049;-69
2024/04/08 09:38:49;;;;;;;9.90;3.00;;;;;;;23.72;33.16;99915.81;4875367;29;20219;-68
2024/04/08 09:41:17;;;;;;;7.35;3.30;;;;;;;23.39;33.79;99893.91;4886526;29;20078;-68
2024/04/08 09:43:45;;;;;;;17.20;3.10;;;;;;;23.27;33.80;99913.25;4888517;29;20132;-66
2024/04/08 09:46:13;;;;;;;7.78;2.78;;;;;;;23.08;34.41;99916.94;4869727;29;20097;-70
2024/04/08 09:48:40;;;;;;;7.63;2.88;;;;;;;22.68;34.53;99919.28;4883248;29;20101;-70
2024/04/08 09:51:08;;;;;;;5.78;2.78;;;;;;;22.33;34.88;99930.91;4883972;29;20190;-68
2024/04/08 09:53:35;;;;;;;10.80;3.00;;;;;;;21.89;35.45;99905.94;4883316;29;20041;-65
2024/04/08 09:56:11;;;;;;;8.77;3.38;;;;;;;21.62;36.12;99932.97;4887456;29;20048;-67
2024/04/08 09:58:41;;;;;;;15.13;3.25;;;;;;;21.40;36.76;99903.22;4884395;29;20040;-70
2024/04/08 10:01:13;;;;;;;9.30;3.17;;;;;;;21.52;36.87;99921.97;4882744;29;20065;-68
2024/04/08 10:03:50;;;;;;;13.13;3.60;;;;;;;21.62;37.23;99900.34;4868717;29;20123;-68
2024/04/08 10:06:18;;;;;;;7.45;2.83;;;;;;;21.67;36.95;99915.06;4869996;29;20044;-68
2024/04/08 10:08:47;;;;;;;9.13;2.90;;;;;;;21.64;37.03;99906.41;4867684;29;20056;-67
2024/04/08 10:11:14;;;;;;;6.50;2.58;;;;;;;21.42;36.86;99925.19;4867956;29;20616;-68
2024/04/08 10:13:47;;;;;;;11.35;2.70;;;;;;;21.19;37.54;99916.66;4885836;29;20127;-68
2024/04/08 10:16:14;;;;;;;13.05;2.58;;;;;;;21.03;38.42;99898.06;4882921;29;20048;-69
2024/04/08 10:18:54;;;;;;;15.15;2.80;;;;;;;20.76;38.48;99872.06;4868776;29;20396;-68
2024/04/08 10:21:25;;;;;;;5.50;2.47;;;;;;;20.85;38.66;99903.34;4852819;29;20433;-67
2024/04/08 10:23:55;;;;;;;8.18;2.88;;;;;;;20.62;38.67;99867.47;4872976;29;20084;-67
2024/04/08 10:26:26;;;;;;;13.68;3.17;;;;;;;20.47;39.00;99871.72;4883042;29;20048;-68
2024/04/08 10:28:53;;;;;;;10.15;2.63;;;;;;;20.46;39.32;99860.25;4851975;29;20557;-68
2024/04/08 10:31:20;;;;;;;5.05;2.38;;;;;;;20.61;38.76;99863.09;4883482;29;20044;-68
2024/04/08 10:33:47;;;;;;;8.80;2.60;;;;;;;20.81;39.58;99893.00;4882313;29;20084;-67
2024/04/08 10:36:13;;;;;;;9.27;2.78;;;;;;;20.83;39.24;99873.47;4885427;29;20053;-67
2024/04/08 10:38:39;;;;;;;9.98;2.80;;;;;;;20.97;38.88;99886.00;4867030;29;20105;-69
2024/04/08 10:41:08;;;;;;;15.95;3.15;;;;;;;20.69;39.68;99875.94;4898181;29;20049;-67
2024/04/08 10:43:35;;;;;;;7.50;2.88;;;;;;;20.92;39.29;99904.75;4883321;29;20067;-69
2024/04/08 10:46:08;;;;;;;8.40;3.35;;;;;;;21.09;39.63;99915.38;4900518;29;21213;-68
2024/04/08 10:48:37;;;;;;;9.10;3.22;;;;;;;20.98;39.39;99897.41;4866342;29;20044;-69
2024/04/08 10:51:03;;;;;;;8.85;3.25;;;;;;;21.15;39.36;99917.72;4867396;29;20052;-68
2024/04/08 10:53:29;;;;;;;15.95;4.00;;;;;;;21.29;39.60;99906.44;4883514;29;21094;-68
2024/04/08 10:55:55;;;;;;;9.90;3.67;;;;;;;21.43;39.12;99924.25;4884770;29;20068;-70
2024/04/08 10:58:22;;;;;;;12.07;3.13;;;;;;;21.50;39.14;99928.28;4884067;29;21857;-69
2024/04/08 11:00:48;;;;;;;9.68;2.92;;;;;;;21.34;38.75;99909.72;4852720;29;20045;-68
2024/04/08 11:03:14;;;;;;;14.35;3.40;;;;;;;21.31;39.19;99931.03;4872243;29;20040;-67
2024/04/08 11:05:40;;;;;;;12.98;3.30;;;;;;;21.02;39.49;99910.44;4899503;29;20067;-68
2024/04/08 11:08:11;;;;;;;14.20;2.95;;;;;;;20.84;39.75;99900.78;4867170;29;20037;-69
2024/04/08 11:10:37;;;;;;;9.93;2.97;;;;;;;20.87;39.98;99927.06;4868657;29;20040;-69
2024/04/08 11:13:07;;;;;;;8.68;2.78;;;;;;;20.77;40.05;99921.38;4883697;29;20159;-69
2024/04/08 11:15:33;;;;;;;8.18;2.70;;;;;;;20.81;40.23;99915.00;4900104;29;20044;-68
2024/04/08 11:18:00;;;;;;;6.63;2.83;;;;;;;20.56;40.41;99887.09;4884328;29;20068;-68
2024/04/08 11:20:29;;;;;;;16.88;3.17;;;;;;;20.69;41.02;99905.00;4898229;29;20139;-67
2024/04/08 11:22:55;;;;;;;8.23;3.10;;;;;;;20.54;40.40;99909.25;4868597;29;20047;-69
2024/04/08 11:25:22;;;;;;;11.30;3.20;;;;;;;20.33;41.06;99896.16;4884955;29;20102;-69
2024/04/08 11:27:48;;;;;;;11.15;3.03;;;;;;;20.28;41.22;99919.28;4882573;29;20559;-66